Time;durP1;ratioP1;P1;durP2;ratioP2;P2;SDS_P1;SDS_P2;PMS_P1;PMS_P2;Temp;Humidity;BMP_temperature;BMP_pressure;BME280_temperature;BME280_humidity;BME280_pressure;Samples;Min_cycle;Max_cycle;Signal;HPM_P1;HPM_P2
2022/04/28 00:00:19;;;;;;;;;;;;;;;;;;1024668;28;3519;-59
2022/04/28 00:01:06;;;;;;;;;;;;;;;;;;1025046;28;3528;-59
2022/04/28 00:01:36;;;;;;;;;;;;;;;;;;1026230;28;3495;-58
2022/04/28 00:02:06;;;;;;;;;;;;;;;;;;1027269;28;3585;-58
2022/04/28 00:02:37;;;;;;;;;;;;;;;;;;1028812;28;4353;-59
2022/04/28 00:03:08;;;;;;;;;;;;;;;;;;1022589;28;3543;-60
2022/04/28 00:03:38;;;;;;;;;;;;;;;;;;1021059;28;3427;-60
2022/04/28 00:04:09;;;;;;;;;;;;;;;;;;1020455;28;3781;-58
2022/04/28 00:04:39;;;;;;;;;;;;;;;;;;1021946;28;3430;-58
2022/04/28 00:05:10;;;;;;;;;;;;;;;;;;1023415;28;4869;-59
2022/04/28 00:05:40;;;;;;;;;;;;;;;;;;1027755;28;3879;-57
2022/04/28 00:06:11;;;;;;;;;;;;;;;;;;1022282;28;3847;-59
2022/04/28 00:06:41;;;;;;;;;;;;;;;;;;1024027;28;3725;-58
2022/04/28 00:07:11;;;;;;;;;;;;;;;;;;1022506;28;3581;-59
2022/04/28 00:07:42;;;;;;;;;;;;;;;;;;1023419;28;3852;-60
2022/04/28 00:08:13;;;;;;;;;;;;;;;;;;1027180;28;3849;-57
2022/04/28 00:08:43;;;;;;;;;;;;;;;;;;1025043;28;3551;-59
2022/04/28 00:09:14;;;;;;;;;;;;;;;;;;1022740;28;3651;-57
2022/04/28 00:09:44;;;;;;;;;;;;;;;;;;1024471;28;3667;-58
2022/04/28 00:10:14;;;;;;;;;;;;;;;;;;1024863;28;3560;-60
2022/04/28 00:10:44;;;;;;;;;;;;;;;;;;1028573;28;3549;-58
2022/04/28 00:11:15;;;;;;;;;;;;;;;;;;1027229;28;4096;-59
2022/04/28 00:11:45;;;;;;;;;;;;;;;;;;1028234;28;3746;-59
2022/04/28 00:12:16;;;;;;;;;;;;;;;;;;1027693;28;3716;-60
2022/04/28 00:12:46;;;;;;;;;;;;;;;;;;1026530;28;3745;-60
2022/04/28 00:13:17;;;;;;;;;;;;;;;;;;1027761;28;4409;-59
2022/04/28 00:14:00;;;;;;;;;;;;;;;;;;1028639;28;3583;-59
2022/04/28 00:14:37;;;;;;;;;;;;;;;;;;1026597;28;3573;-60
2022/04/28 00:15:08;;;;;;;;;;;;;;;;;;1028147;28;3713;-61
2022/04/28 00:15:39;;;;;;;;;;;;;;;;;;1028551;28;4173;-59
2022/04/28 00:16:09;;;;;;;;;;;;;;;;;;1028312;28;4447;-59
2022/04/28 00:16:40;;;;;;;;;;;;;;;;;;1031391;28;4472;-61
2022/04/28 00:17:10;;;;;;;;;;;;;;;;;;1031380;28;4039;-58
2022/04/28 00:17:41;;;;;;;;;;;;;;;;;;1030576;28;4372;-60
2022/04/28 00:18:11;;;;;;;;;;;;;;;;;;1031633;28;3648;-59
2022/04/28 00:18:41;;;;;;;;;;;;;;;;;;1033019;28;3601;-58
2022/04/28 00:19:12;;;;;;;;;;;;;;;;;;1031041;28;3494;-57
2022/04/28 00:19:42;;;;;;;;;;;;;;;;;;1030912;28;4179;-57
2022/04/28 00:20:12;;;;;;;;;;;;;;;;;;1031031;28;3569;-58
2022/04/28 00:20:42;;;;;;;;;;;;;;;;;;1031369;28;4335;-58
2022/04/28 00:21:13;;;;;;;;;;;;;;;;;;1030788;28;3947;-60
2022/04/28 00:21:43;;;;;;;;;;;;;;;;;;1031709;28;5323;-59
2022/04/28 00:22:13;;;;;;;;;;;;;;;;;;1030901;28;3564;-60
2022/04/28 00:22:44;;;;;;;;;;;;;;;;;;1030425;28;4785;-60
2022/04/28 00:23:14;;;;;;;;;;;;;;;;;;1030714;28;3561;-59
2022/04/28 00:23:44;;;;;;;;;;;;;;;;;;1032288;28;3477;-59
2022/04/28 00:24:15;;;;;;;;;;;;;;;;;;1027476;28;5903;-56
2022/04/28 00:24:45;;;;;;;;;;;;;;;;;;1027225;28;3507;-58
2022/04/28 00:25:15;;;;;;;;;;;;;;;;;;1028712;28;3552;-59
2022/04/28 00:25:53;;;;;;;;;;;;;;;;;;1028461;28;4976;-60
2022/04/28 00:26:24;;;;;;;;;;;;;;;;;;1032088;28;4708;-60
2022/04/28 00:26:54;;;;;;;;;;;;;;;;;;1031252;28;3624;-61
2022/04/28 00:27:24;;;;;;;;;;;;;;;;;;1031218;28;3706;-58
2022/04/28 00:27:54;;;;;;;;;;;;;;;;;;1030356;28;3769;-59
2022/04/28 00:28:25;;;;;;;;;;;;;;;;;;1031382;28;3700;-59
2022/04/28 00:28:55;;;;;;;;;;;;;;;;;;1032782;28;3837;-59
2022/04/28 00:29:25;;;;;;;;;;;;;;;;;;1032452;28;4011;-58
2022/04/28 00:29:56;;;;;;;;;;;;;;;;;;1031620;28;3812;-59
2022/04/28 00:30:26;;;;;;;;;;;;;;;;;;1031729;28;3538;-59
2022/04/28 00:30:56;;;;;;;;;;;;;;;;;;1030639;28;3953;-59
2022/04/28 00:31:26;;;;;;;;;;;;;;;;;;1031581;28;4126;-59
2022/04/28 00:31:57;;;;;;;;;;;;;;;;;;1031870;28;4410;-59
2022/04/28 00:32:27;;;;;;;;;;;;;;;;;;1032124;28;3563;-57
2022/04/28 00:32:57;;;;;;;;;;;;;;;;;;1027998;28;3650;-58
2022/04/28 00:33:27;;;;;;;;;;;;;;;;;;1029080;28;3571;-58
2022/04/28 00:33:58;;;;;;;;;;;;;;;;;;1028652;28;3683;-57
2022/04/28 00:34:28;;;;;;;;;;;;;;;;;;1028605;28;3704;-59
2022/04/28 00:34:58;;;;;;;;;;;;;;;;;;1031885;28;3789;-59
2022/04/28 00:35:29;;;;;;;;;;;;;;;;;;1032669;28;3752;-59
2022/04/28 00:35:59;;;;;;;;;;;;;;;;;;1032393;28;3767;-58
2022/04/28 00:36:29;;;;;;;;;;;;;;;;;;1032469;28;3583;-59
2022/04/28 00:36:59;;;;;;;;;;;;;;;;;;1032943;28;3496;-58
2022/04/28 00:37:30;;;;;;;;;;;;;;;;;;1031443;28;3633;-59
2022/04/28 00:38:00;;;;;;;;;;;;;;;;;;1032143;28;4117;-60
2022/04/28 00:38:30;;;;;;;;;;;;;;;;;;1027224;28;3865;-60
2022/04/28 00:39:00;;;;;;;;;;;;;;;;;;1027171;28;3748;-57
2022/04/28 00:39:31;;;;;;;;;;;;;;;;;;1026796;28;5364;-58
2022/04/28 00:40:01;;;;;;;;;;;;;;;;;;1028434;28;3704;-59
2022/04/28 00:40:31;;;;;;;;;;;;;;;;;;1031771;28;3555;-57
2022/04/28 00:41:02;;;;;;;;;;;;;;;;;;1032296;28;3738;-59
2022/04/28 00:41:32;;;;;;;;;;;;;;;;;;1031050;28;3502;-59
2022/04/28 00:42:06;;;;;;;;;;;;;;;;;;1032032;28;3658;-59
2022/04/28 00:42:37;;;;;;;;;;;;;;;;;;1032224;28;3641;-59
2022/04/28 00:43:19;;;;;;;;;;;;;;;;;;1032578;28;3596;-58
2022/04/28 00:43:50;;;;;;;;;;;;;;;;;;1032283;28;3762;-59
2022/04/28 00:44:20;;;;;;;;;;;;;;;;;;1031263;28;4035;-59
2022/04/28 00:44:51;;;;;;;;;;;;;;;;;;1032512;28;3660;-58
2022/04/28 00:45:21;;;;;;;;;;;;;;;;;;1031159;28;3726;-60
2022/04/28 00:45:51;;;;;;;;;;;;;;;;;;1031246;28;3585;-60
2022/04/28 00:46:21;;;;;;;;;;;;;;;;;;1027761;28;4384;-60
2022/04/28 00:46:52;;;;;;;;;;;;;;;;;;1029603;28;3513;-57
2022/04/28 00:47:22;;;;;;;;;;;;;;;;;;1034027;28;3501;-60
2022/04/28 00:50:38;;;;;;;;;;;;;;;;;;1031746;28;3684;-59
2022/04/28 00:51:11;;;;;;;;;;;;;;;;;;1031675;28;6202;-58
2022/04/28 00:51:41;;;;;;;;;;;;;;;;;;1032311;28;3503;-60
2022/04/28 00:52:11;;;;;;;;;;;;;;;;;;1031555;28;3720;-59
2022/04/28 00:52:41;;;;;;;;;;;;;;;;;;1032130;28;3910;-59
2022/04/28 00:53:13;;;;;;;;;;;;;;;;;;1030864;28;3567;-59
2022/04/28 00:53:44;;;;;;;;;;;;;;;;;;1031517;28;3564;-59
2022/04/28 00:54:15;;;;;;;;;;;;;;;;;;1030187;28;4215;-59
2022/04/28 00:54:45;;;;;;;;;;;;;;;;;;1033284;28;3541;-60
2022/04/28 00:55:16;;;;;;;;;;;;;;;;;;1030336;28;4662;-58
2022/04/28 00:55:46;;;;;;;;;;;;;;;;;;1032988;28;3551;-59
2022/04/28 00:56:17;;;;;;;;;;;;;;;;;;1030690;28;5599;-58
2022/04/28 00:56:47;;;;;;;;;;;;;;;;;;1031779;28;3669;-58
2022/04/28 00:57:18;;;;;;;;;;;;;;;;;;1030575;28;3852;-59
2022/04/28 00:57:49;;;;;;;;;;;;;;;;;;1032952;28;3928;-60
2022/04/28 00:58:19;;;;;;;;;;;;;;;;;;1032073;28;3671;-57
2022/04/28 00:58:50;;;;;;;;;;;;;;;;;;1032278;28;3575;-59
2022/04/28 00:59:20;;;;;;;;;;;;;;;;;;1032598;28;3570;-58
2022/04/28 00:59:51;;;;;;;;;;;;;;;;;;1033530;28;3572;-58
2022/04/28 01:00:21;;;;;;;;;;;;;;;;;;1032281;28;3957;-57
2022/04/28 01:00:55;;;;;;;;;;;;;;;;;;1032081;28;3645;-57
2022/04/28 01:01:26;;;;;;;;;;;;;;;;;;1030549;28;3944;-59
2022/04/28 01:01:56;;;;;;;;;;;;;;;;;;1032354;28;3547;-59
2022/04/28 01:02:26;;;;;;;;;;;;;;;;;;1031909;28;4369;-59
2022/04/28 01:02:57;;;;;;;;;;;;;;;;;;1032393;28;4688;-59
2022/04/28 01:03:30;;;;;;;;;;;;;;;;;;1031505;28;3630;-59
2022/04/28 01:04:01;;;;;;;;;;;;;;;;;;1032040;28;4271;-59
2022/04/28 01:04:31;;;;;;;;;;;;;;;;;;1029663;28;3719;-59
2022/04/28 01:05:01;;;;;;;;;;;;;;;;;;1034070;28;3408;-59
2022/04/28 01:05:32;;;;;;;;;;;;;;;;;;1031678;28;3898;-58
2022/04/28 01:06:02;;;;;;;;;;;;;;;;;;1031074;28;4417;-58
2022/04/28 01:06:32;;;;;;;;;;;;;;;;;;1029421;28;3671;-60
2022/04/28 01:07:04;;;;;;;;;;;;;;;;;;1032859;28;3991;-59
2022/04/28 01:07:34;;;;;;;;;;;;;;;;;;1031947;28;4103;-59
2022/04/28 01:08:05;;;;;;;;;;;;;;;;;;1031845;28;3894;-60
2022/04/28 01:08:35;;;;;;;;;;;;;;;;;;1032641;28;3592;-60
2022/04/28 01:09:06;;;;;;;;;;;;;;;;;;1032079;28;3928;-59
2022/04/28 01:09:39;;;;;;;;;;;;;;;;;;1031585;28;4925;-60
2022/04/28 01:10:09;;;;;;;;;;;;;;;;;;1028492;28;4275;-57
2022/04/28 01:10:39;;;;;;;;;;;;;;;;;;1029872;28;3755;-58
2022/04/28 01:11:10;;;;;;;;;;;;;;;;;;1028282;28;4184;-60
2022/04/28 01:11:40;;;;;;;;;;;;;;;;;;1028407;28;3677;-60
2022/04/28 01:12:14;;;;;;;;;;;;;;;;;;1031509;28;3759;-60
2022/04/28 01:12:46;;;;;;;;;;;;;;;;;;1032444;28;3483;-58
2022/04/28 01:13:16;;;;;;;;;;;;;;;;;;1031204;28;3677;-59
2022/04/28 01:13:47;;;;;;;;;;;;;;;;;;1032021;28;4478;-59
2022/04/28 01:14:23;;;;;;;;;;;;;;;;;;1031253;28;3551;-57
2022/04/28 01:14:53;;;;;;;;;;;;;;;;;;1033266;28;3531;-59
2022/04/28 01:15:24;;;;;;;;;;;;;;;;;;1032626;28;3626;-59
2022/04/28 01:15:54;;;;;;;;;;;;;;;;;;1032203;28;4173;-60
2022/04/28 01:16:24;;;;;;;;;;;;;;;;;;1028054;28;3720;-59
2022/04/28 01:16:54;;;;;;;;;;;;;;;;;;1028828;28;3492;-59
2022/04/28 01:17:25;;;;;;;;;;;;;;;;;;1030463;28;3533;-59
2022/04/28 01:17:55;;;;;;;;;;;;;;;;;;1024975;28;3785;-60
2022/04/28 01:18:25;;;;;;;;;;;;;;;;;;1027646;28;3787;-58
2022/04/28 01:18:56;;;;;;;;;;;;;;;;;;1028137;28;3845;-59
2022/04/28 01:19:26;;;;;;;;;;;;;;;;;;1027029;28;4204;-58
2022/04/28 01:19:56;;;;;;;;;;;;;;;;;;1032252;28;3643;-58
2022/04/28 01:20:26;;;;;;;;;;;;;;;;;;1032871;28;3641;-58
2022/04/28 01:21:01;;;;;;;;;;;;;;;;;;1028596;28;3519;-60
2022/04/28 01:21:31;;;;;;;;;;;;;;;;;;1028078;28;3582;-59
2022/04/28 01:22:02;;;;;;;;;;;;;;;;;;1028440;28;3689;-60
2022/04/28 01:22:41;;;;;;;;;;;;;;;;;;1028108;28;5007;-59
2022/04/28 01:23:11;;;;;;;;;;;;;;;;;;1027426;28;3968;-57
2022/04/28 01:23:41;;;;;;;;;;;;;;;;;;1024479;28;3749;-57
2022/04/28 01:24:12;;;;;;;;;;;;;;;;;;1028293;28;3973;-58
2022/04/28 01:24:42;;;;;;;;;;;;;;;;;;1028693;28;3548;-59
2022/04/28 01:25:13;;;;;;;;;;;;;;;;;;1032398;28;3549;-58
2022/04/28 01:25:43;;;;;;;;;;;;;;;;;;1032199;28;3581;-60
2022/04/28 01:26:14;;;;;;;;;;;;;;;;;;1032374;28;3872;-59
2022/04/28 01:26:46;;;;;;;;;;;;;;;;;;1032746;28;4903;-58
2022/04/28 01:27:16;;;;;;;;;;;;;;;;;;1031972;28;5623;-58
2022/04/28 01:27:47;;;;;;;;;;;;;;;;;;1033074;28;3670;-59
2022/04/28 01:28:17;;;;;;;;;;;;;;;;;;1026262;28;3742;-59
2022/04/28 01:28:48;;;;;;;;;;;;;;;;;;1025574;28;3619;-60
2022/04/28 01:29:18;;;;;;;;;;;;;;;;;;1025221;28;4357;-59
2022/04/28 01:29:48;;;;;;;;;;;;;;;;;;1028183;28;4282;-58
2022/04/28 01:30:26;;;;;;;;;;;;;;;;;;1031742;28;3570;-59
2022/04/28 01:30:58;;;;;;;;;;;;;;;;;;1031671;28;3471;-58
2022/04/28 01:31:28;;;;;;;;;;;;;;;;;;1030185;28;3977;-59
2022/04/28 01:31:59;;;;;;;;;;;;;;;;;;1033579;28;3583;-59
2022/04/28 01:32:29;;;;;;;;;;;;;;;;;;1031730;28;3663;-59
2022/04/28 01:33:00;;;;;;;;;;;;;;;;;;1031603;28;3997;-58
2022/04/28 01:33:30;;;;;;;;;;;;;;;;;;1032216;28;4199;-59
2022/04/28 01:34:01;;;;;;;;;;;;;;;;;;1032180;28;3626;-59
2022/04/28 01:34:31;;;;;;;;;;;;;;;;;;1032715;28;3574;-60
2022/04/28 01:35:02;;;;;;;;;;;;;;;;;;1032181;28;3595;-57
2022/04/28 01:35:32;;;;;;;;;;;;;;;;;;1032371;28;3811;-57
2022/04/28 01:36:04;;;;;;;;;;;;;;;;;;1032083;28;5227;-58
2022/04/28 01:36:34;;;;;;;;;;;;;;;;;;1030608;28;5444;-59
2022/04/28 01:37:06;;;;;;;;;;;;;;;;;;1033787;28;3708;-58
2022/04/28 01:37:36;;;;;;;;;;;;;;;;;;1032973;28;3520;-58
2022/04/28 01:38:07;;;;;;;;;;;;;;;;;;1031774;28;3642;-59
2022/04/28 01:38:37;;;;;;;;;;;;;;;;;;1031271;28;3842;-60
2022/04/28 01:39:08;;;;;;;;;;;;;;;;;;1031788;28;3630;-59
2022/04/28 01:39:38;;;;;;;;;;;;;;;;;;1032509;28;4224;-59
2022/04/28 01:40:11;;;;;;;;;;;;;;;;;;1032463;28;4247;-58
2022/04/28 01:40:43;;;;;;;;;;;;;;;;;;1032972;28;3703;-58
2022/04/28 01:41:13;;;;;;;;;;;;;;;;;;1031331;28;3709;-58
2022/04/28 01:41:43;;;;;;;;;;;;;;;;;;1031833;28;3590;-59
2022/04/28 01:42:14;;;;;;;;;;;;;;;;;;1032848;28;3426;-59
2022/04/28 01:42:50;;;;;;;;;;;;;;;;;;1032402;28;3658;-59
2022/04/28 01:43:21;;;;;;;;;;;;;;;;;;1032360;28;3537;-60
2022/04/28 01:43:51;;;;;;;;;;;;;;;;;;1032191;28;3640;-60
2022/04/28 01:44:21;;;;;;;;;;;;;;;;;;1031629;28;3658;-60
2022/04/28 01:44:51;;;;;;;;;;;;;;;;;;1032376;28;3595;-58
2022/04/28 01:45:22;;;;;;;;;;;;;;;;;;1032105;28;3634;-57
2022/04/28 01:45:52;;;;;;;;;;;;;;;;;;1032470;28;3904;-57
2022/04/28 01:46:23;;;;;;;;;;;;;;;;;;1032095;28;3951;-59
2022/04/28 01:46:53;;;;;;;;;;;;;;;;;;1031860;28;4037;-58
2022/04/28 01:47:24;;;;;;;;;;;;;;;;;;1031907;28;4125;-59
2022/04/28 01:47:54;;;;;;;;;;;;;;;;;;1032864;28;3734;-59
2022/04/28 01:48:25;;;;;;;;;;;;;;;;;;1029034;28;3608;-59
2022/04/28 01:48:55;;;;;;;;;;;;;;;;;;1027043;28;3847;-62
2022/04/28 01:49:26;;;;;;;;;;;;;;;;;;1026430;28;3610;-59
2022/04/28 01:49:56;;;;;;;;;;;;;;;;;;1029642;28;3760;-59
2022/04/28 01:50:26;;;;;;;;;;;;;;;;;;1028689;28;5514;-57
2022/04/28 01:55:01;;;;;;;;;;;;;;;;;;1032812;28;4235;-58
2022/04/28 01:55:37;;;;;;;;;;;;;;;;;;1031600;28;5626;-60
2022/04/28 01:56:08;;;;;;;;;;;;;;;;;;1032176;28;4122;-59
2022/04/28 01:56:38;;;;;;;;;;;;;;;;;;1031675;28;3609;-59
2022/04/28 01:57:08;;;;;;;;;;;;;;;;;;1031888;28;4027;-57
2022/04/28 01:57:39;;;;;;;;;;;;;;;;;;1032742;28;3574;-59
2022/04/28 01:58:09;;;;;;;;;;;;;;;;;;1031329;28;3426;-59
2022/04/28 01:58:39;;;;;;;;;;;;;;;;;;1032448;28;3588;-60
2022/04/28 01:59:10;;;;;;;;;;;;;;;;;;1031905;28;3645;-58
2022/04/28 01:59:40;;;;;;;;;;;;;;;;;;1032105;28;3737;-60
2022/04/28 02:00:10;;;;;;;;;;;;;;;;;;1030987;28;5523;-58
2022/04/28 02:00:41;;;;;;;;;;;;;;;;;;1031824;28;4320;-58
2022/04/28 02:01:11;;;;;;;;;;;;;;;;;;1032097;28;4014;-59
2022/04/28 02:01:41;;;;;;;;;;;;;;;;;;1028507;28;3888;-58
2022/04/28 02:02:12;;;;;;;;;;;;;;;;;;1025239;28;3792;-57
2022/04/28 02:02:42;;;;;;;;;;;;;;;;;;1023615;28;3457;-58
2022/04/28 02:03:13;;;;;;;;;;;;;;;;;;1024600;28;3536;-58
2022/04/28 02:03:43;;;;;;;;;;;;;;;;;;1028726;28;5597;-58
2022/04/28 02:04:13;;;;;;;;;;;;;;;;;;1028734;28;3563;-59
2022/04/28 02:04:43;;;;;;;;;;;;;;;;;;1032807;28;3772;-59
2022/04/28 02:05:14;;;;;;;;;;;;;;;;;;1031756;28;3591;-59
2022/04/28 02:05:44;;;;;;;;;;;;;;;;;;1031545;28;3840;-58
2022/04/28 02:06:14;;;;;;;;;;;;;;;;;;1031364;28;3823;-59
2022/04/28 02:06:45;;;;;;;;;;;;;;;;;;1029402;28;3698;-59
2022/04/28 02:07:15;;;;;;;;;;;;;;;;;;1027378;28;3931;-58
2022/04/28 02:07:45;;;;;;;;;;;;;;;;;;1029533;28;4216;-58
2022/04/28 02:08:15;;;;;;;;;;;;;;;;;;1028423;28;3491;-59
2022/04/28 02:08:46;;;;;;;;;;;;;;;;;;1032373;28;4019;-58
2022/04/28 02:09:16;;;;;;;;;;;;;;;;;;1028045;28;3780;-58
2022/04/28 02:09:46;;;;;;;;;;;;;;;;;;1028528;28;3712;-59
2022/04/28 02:10:17;;;;;;;;;;;;;;;;;;1028720;28;3964;-59
2022/04/28 02:10:47;;;;;;;;;;;;;;;;;;1028284;28;3621;-59
2022/04/28 02:11:18;;;;;;;;;;;;;;;;;;1032396;28;3692;-58
2022/04/28 02:11:48;;;;;;;;;;;;;;;;;;1031783;28;3598;-59
2022/04/28 02:12:18;;;;;;;;;;;;;;;;;;1032204;28;4472;-59
2022/04/28 02:12:48;;;;;;;;;;;;;;;;;;1032538;28;3707;-58
2022/04/28 02:13:19;;;;;;;;;;;;;;;;;;1026525;28;3608;-59
2022/04/28 02:13:49;;;;;;;;;;;;;;;;;;1027071;28;3902;-58
2022/04/28 02:14:25;;;;;;;;;;;;;;;;;;1025965;28;3794;-59
2022/04/28 02:15:03;;;;;;;;;;;;;;;;;;1025090;28;4876;-59
2022/04/28 02:15:39;;;;;;;;;;;;;;;;;;1028058;28;3612;-59
2022/04/28 02:16:10;;;;;;;;;;;;;;;;;;1028007;28;3573;-60
2022/04/28 02:16:40;;;;;;;;;;;;;;;;;;1028899;28;3465;-58
2022/04/28 02:17:11;;;;;;;;;;;;;;;;;;1027369;28;4248;-58
2022/04/28 02:17:41;;;;;;;;;;;;;;;;;;1028758;28;3564;-60
2022/04/28 02:18:11;;;;;;;;;;;;;;;;;;1028005;28;3594;-58
2022/04/28 02:18:41;;;;;;;;;;;;;;;;;;1027218;28;3509;-58
2022/04/28 02:19:12;;;;;;;;;;;;;;;;;;1028558;28;3977;-58
2022/04/28 02:19:42;;;;;;;;;;;;;;;;;;1027449;28;6085;-60
2022/04/28 02:20:12;;;;;;;;;;;;;;;;;;1027646;28;3687;-59
2022/04/28 02:20:43;;;;;;;;;;;;;;;;;;1024286;28;3803;-60
2022/04/28 02:21:13;;;;;;;;;;;;;;;;;;1022872;28;4234;-58
2022/04/28 02:21:43;;;;;;;;;;;;;;;;;;1024240;28;3685;-60
2022/04/28 02:22:14;;;;;;;;;;;;;;;;;;1020750;28;4490;-58
2022/04/28 02:22:44;;;;;;;;;;;;;;;;;;1025096;28;3794;-58
2022/04/28 02:23:14;;;;;;;;;;;;;;;;;;1022886;28;3741;-60
2022/04/28 02:23:45;;;;;;;;;;;;;;;;;;1024578;28;3709;-58
2022/04/28 02:24:15;;;;;;;;;;;;;;;;;;1026777;28;4923;-58
2022/04/28 02:24:46;;;;;;;;;;;;;;;;;;1027970;28;3524;-60
2022/04/28 02:25:16;;;;;;;;;;;;;;;;;;1028177;28;3656;-59
2022/04/28 02:25:46;;;;;;;;;;;;;;;;;;1027921;28;3478;-60
2022/04/28 02:26:16;;;;;;;;;;;;;;;;;;1028022;28;3837;-60
2022/04/28 02:26:47;;;;;;;;;;;;;;;;;;1028767;28;3575;-59
2022/04/28 02:27:17;;;;;;;;;;;;;;;;;;1027653;28;3998;-59
2022/04/28 02:27:48;;;;;;;;;;;;;;;;;;1028840;28;4021;-60
2022/04/28 02:28:18;;;;;;;;;;;;;;;;;;1027591;28;3712;-59
2022/04/28 02:28:48;;;;;;;;;;;;;;;;;;1028081;28;3684;-58
2022/04/28 02:29:19;;;;;;;;;;;;;;;;;;1024348;28;5847;-59
2022/04/28 02:29:49;;;;;;;;;;;;;;;;;;1024757;28;3535;-59
2022/04/28 02:30:19;;;;;;;;;;;;;;;;;;1023642;28;3944;-59
2022/04/28 02:30:49;;;;;;;;;;;;;;;;;;1024719;28;3555;-58
2022/04/28 02:31:20;;;;;;;;;;;;;;;;;;1024250;28;3850;-60
2022/04/28 02:31:57;;;;;;;;;;;;;;;;;;1025196;28;3652;-60
2022/04/28 02:33:08;;;;;;;;;;;;;;;;;;1024420;28;3777;-59
2022/04/28 02:33:18;;;;;;;;;;;;;;;;;;1026656;28;3794;-59
2022/04/28 02:33:48;;;;;;;;;;;;;;;;;;1028248;28;3479;-58
2022/04/28 02:34:19;;;;;;;;;;;;;;;;;;1027687;28;3509;-59
2022/04/28 02:34:49;;;;;;;;;;;;;;;;;;1027937;28;3542;-59
2022/04/28 02:35:19;;;;;;;;;;;;;;;;;;1027648;28;3507;-59
2022/04/28 02:35:49;;;;;;;;;;;;;;;;;;1027866;28;4733;-59
2022/04/28 02:36:20;;;;;;;;;;;;;;;;;;1028029;28;4019;-58
2022/04/28 02:36:50;;;;;;;;;;;;;;;;;;1028846;28;3755;-58
2022/04/28 02:37:20;;;;;;;;;;;;;;;;;;1026982;28;3743;-59
2022/04/28 02:37:51;;;;;;;;;;;;;;;;;;1027794;28;3571;-59
2022/04/28 02:38:21;;;;;;;;;;;;;;;;;;1028211;28;3578;-59
2022/04/28 02:38:51;;;;;;;;;;;;;;;;;;1027506;28;3681;-59
2022/04/28 02:39:22;;;;;;;;;;;;;;;;;;1028266;28;3642;-57
2022/04/28 02:39:52;;;;;;;;;;;;;;;;;;1027206;28;4004;-57
2022/04/28 02:40:22;;;;;;;;;;;;;;;;;;1026468;28;3824;-59
2022/04/28 02:40:52;;;;;;;;;;;;;;;;;;1027932;28;3614;-60
2022/04/28 02:41:23;;;;;;;;;;;;;;;;;;1028411;28;4023;-58
2022/04/28 02:41:53;;;;;;;;;;;;;;;;;;1027745;28;3669;-61
2022/04/28 02:42:23;;;;;;;;;;;;;;;;;;1028340;28;3553;-58
2022/04/28 02:42:53;;;;;;;;;;;;;;;;;;1028999;28;4812;-59
2022/04/28 02:43:24;;;;;;;;;;;;;;;;;;1025797;28;3689;-60
2022/04/28 02:43:54;;;;;;;;;;;;;;;;;;1027754;28;3711;-60
2022/04/28 02:44:24;;;;;;;;;;;;;;;;;;1023053;28;3760;-59
2022/04/28 02:44:54;;;;;;;;;;;;;;;;;;1024845;28;3533;-58
2022/04/28 02:45:25;;;;;;;;;;;;;;;;;;1023700;28;3691;-58
2022/04/28 02:45:58;;;;;;;;;;;;;;;;;;1023942;28;3592;-57
2022/04/28 02:46:29;;;;;;;;;;;;;;;;;;1028366;28;3564;-60
2022/04/28 02:47:06;;;;;;;;;;;;;;;;;;1028678;28;3680;-60
2022/04/28 02:47:37;;;;;;;;;;;;;;;;;;1028396;28;3945;-58
2022/04/28 02:48:08;;;;;;;;;;;;;;;;;;1027563;28;3858;-59
2022/04/28 02:48:38;;;;;;;;;;;;;;;;;;1027751;28;3512;-59
2022/04/28 02:49:09;;;;;;;;;;;;;;;;;;1028688;28;3867;-58
2022/04/28 02:49:39;;;;;;;;;;;;;;;;;;1028605;28;3921;-58
2022/04/28 02:50:12;;;;;;;;;;;;;;;;;;1026637;28;3707;-58
2022/04/28 02:50:43;;;;;;;;;;;;;;;;;;1024491;28;3512;-58
2022/04/28 02:51:13;;;;;;;;;;;;;;;;;;1024150;28;3641;-59
2022/04/28 02:51:43;;;;;;;;;;;;;;;;;;1023868;28;3521;-58
2022/04/28 02:52:14;;;;;;;;;;;;;;;;;;1022991;28;3498;-60
2022/04/28 02:52:44;;;;;;;;;;;;;;;;;;1029023;28;3786;-60
2022/04/28 02:53:14;;;;;;;;;;;;;;;;;;1026666;28;3826;-58
2022/04/28 02:53:45;;;;;;;;;;;;;;;;;;1022393;28;3556;-58
2022/04/28 02:54:15;;;;;;;;;;;;;;;;;;1023405;28;3701;-59
2022/04/28 02:54:45;;;;;;;;;;;;;;;;;;1023967;28;3663;-58
2022/04/28 02:55:16;;;;;;;;;;;;;;;;;;1022874;28;4272;-59
2022/04/28 02:55:46;;;;;;;;;;;;;;;;;;1026281;28;5671;-60
2022/04/28 02:56:16;;;;;;;;;;;;;;;;;;1027614;28;4033;-58
2022/04/28 02:56:46;;;;;;;;;;;;;;;;;;1026657;28;3436;-59
2022/04/28 02:57:17;;;;;;;;;;;;;;;;;;1028352;28;3983;-59
2022/04/28 02:57:47;;;;;;;;;;;;;;;;;;1028535;28;4752;-59
2022/04/28 02:58:17;;;;;;;;;;;;;;;;;;1027607;28;3802;-58
2022/04/28 02:58:49;;;;;;;;;;;;;;;;;;1028685;28;3414;-59
2022/04/28 02:59:19;;;;;;;;;;;;;;;;;;1028587;28;3583;-60
2022/04/28 02:59:50;;;;;;;;;;;;;;;;;;1028969;28;4249;-60
2022/04/28 03:00:20;;;;;;;;;;;;;;;;;;1027266;28;3559;-59
2022/04/28 03:00:50;;;;;;;;;;;;;;;;;;1028187;28;3708;-60
2022/04/28 03:01:21;;;;;;;;;;;;;;;;;;1027189;28;3621;-58
2022/04/28 03:01:52;;;;;;;;;;;;;;;;;;1028425;28;3779;-58
2022/04/28 03:02:22;;;;;;;;;;;;;;;;;;1027619;28;3598;-60
2022/04/28 03:02:52;;;;;;;;;;;;;;;;;;1028000;28;3658;-60
2022/04/28 03:03:23;;;;;;;;;;;;;;;;;;1027509;28;4320;-59
2022/04/28 03:03:53;;;;;;;;;;;;;;;;;;1029153;28;4157;-59
2022/04/28 03:04:25;;;;;;;;;;;;;;;;;;1027578;28;4788;-60
2022/04/28 03:04:56;;;;;;;;;;;;;;;;;;1029119;28;3708;-58
2022/04/28 03:05:26;;;;;;;;;;;;;;;;;;1028690;28;3575;-59
2022/04/28 03:11:04;;;;;;;;;;;;;;;;;;1023934;28;3575;-59
2022/04/28 03:11:34;;;;;;;;;;;;;;;;;;1022567;28;4478;-58
2022/04/28 03:12:04;;;;;;;;;;;;;;;;;;1025488;28;3777;-60
2022/04/28 03:12:38;;;;;;;;;;;;;;;;;;1024479;28;3451;-59
2022/04/28 03:13:08;;;;;;;;;;;;;;;;;;1024837;28;3592;-58
2022/04/28 03:13:39;;;;;;;;;;;;;;;;;;1027182;28;3559;-56
2022/04/28 03:14:15;;;;;;;;;;;;;;;;;;1029200;28;3608;-58
2022/04/28 03:14:52;;;;;;;;;;;;;;;;;;1031898;28;3484;-59
2022/04/28 03:15:23;;;;;;;;;;;;;;;;;;1031022;28;3753;-59
2022/04/28 03:15:53;;;;;;;;;;;;;;;;;;1029627;28;3928;-59
2022/04/28 03:16:24;;;;;;;;;;;;;;;;;;1031718;28;3493;-58
2022/04/28 03:16:54;;;;;;;;;;;;;;;;;;1033229;28;3494;-60
2022/04/28 03:17:24;;;;;;;;;;;;;;;;;;1032077;28;3502;-59
2022/04/28 03:17:54;;;;;;;;;;;;;;;;;;1029128;28;3661;-59
2022/04/28 03:18:25;;;;;;;;;;;;;;;;;;1028285;28;3565;-59
2022/04/28 03:18:55;;;;;;;;;;;;;;;;;;1029247;28;3832;-58
2022/04/28 03:19:26;;;;;;;;;;;;;;;;;;1027482;28;3770;-59
2022/04/28 03:19:56;;;;;;;;;;;;;;;;;;1032646;28;3859;-60
2022/04/28 03:20:26;;;;;;;;;;;;;;;;;;1031166;28;3940;-58
2022/04/28 03:20:56;;;;;;;;;;;;;;;;;;1028929;28;3631;-57
2022/04/28 03:21:27;;;;;;;;;;;;;;;;;;1028724;28;6356;-58
2022/04/28 03:21:57;;;;;;;;;;;;;;;;;;1024746;28;5393;-59
2022/04/28 03:22:28;;;;;;;;;;;;;;;;;;1023082;28;3590;-59
2022/04/28 03:22:59;;;;;;;;;;;;;;;;;;1028673;28;3727;-56
2022/04/28 03:23:29;;;;;;;;;;;;;;;;;;1028641;28;3592;-59
2022/04/28 03:23:59;;;;;;;;;;;;;;;;;;1032637;28;4509;-58
2022/04/28 03:24:29;;;;;;;;;;;;;;;;;;1030277;28;3698;-60
2022/04/28 03:25:00;;;;;;;;;;;;;;;;;;1031135;28;3854;-60
2022/04/28 03:25:31;;;;;;;;;;;;;;;;;;1028897;28;3557;-59
2022/04/28 03:26:03;;;;;;;;;;;;;;;;;;1028324;28;3474;-59
2022/04/28 03:26:33;;;;;;;;;;;;;;;;;;1028256;28;3681;-59
2022/04/28 03:27:03;;;;;;;;;;;;;;;;;;1029261;28;3851;-59
2022/04/28 03:27:34;;;;;;;;;;;;;;;;;;1032187;28;3859;-57
2022/04/28 03:28:04;;;;;;;;;;;;;;;;;;1032179;28;3659;-58
2022/04/28 03:28:36;;;;;;;;;;;;;;;;;;1030880;28;3738;-59
2022/04/28 03:29:06;;;;;;;;;;;;;;;;;;1031842;28;3587;-57
2022/04/28 03:29:37;;;;;;;;;;;;;;;;;;1032375;28;3574;-59
2022/04/28 03:30:09;;;;;;;;;;;;;;;;;;1031077;28;4260;-59
2022/04/28 03:30:39;;;;;;;;;;;;;;;;;;1031702;28;3536;-60
2022/04/28 03:31:09;;;;;;;;;;;;;;;;;;1031149;28;3494;-58
2022/04/28 03:31:39;;;;;;;;;;;;;;;;;;1030523;28;3493;-58
2022/04/28 03:32:10;;;;;;;;;;;;;;;;;;1030837;28;3673;-57
2022/04/28 03:32:42;;;;;;;;;;;;;;;;;;1031880;28;3566;-58
2022/04/28 03:33:12;;;;;;;;;;;;;;;;;;1029514;28;3758;-57
2022/04/28 03:33:43;;;;;;;;;;;;;;;;;;1032057;28;3715;-59
2022/04/28 03:34:13;;;;;;;;;;;;;;;;;;1031568;28;4184;-59
2022/04/28 03:34:43;;;;;;;;;;;;;;;;;;1031556;28;4905;-59
2022/04/28 03:35:14;;;;;;;;;;;;;;;;;;1030104;28;3750;-59
2022/04/28 03:35:44;;;;;;;;;;;;;;;;;;1027962;28;4358;-58
2022/04/28 03:37:04;;;;;;;;;;;;;;;;;;1028838;28;3670;-57
2022/04/28 03:37:34;;;;;;;;;;;;;;;;;;1029653;28;3855;-59
2022/04/28 03:38:04;;;;;;;;;;;;;;;;;;1032079;28;3623;-58
2022/04/28 03:38:35;;;;;;;;;;;;;;;;;;1031448;28;3772;-60
2022/04/28 03:39:05;;;;;;;;;;;;;;;;;;1032160;28;3429;-58
2022/04/28 03:39:37;;;;;;;;;;;;;;;;;;1031593;28;3574;-56
2022/04/28 03:40:07;;;;;;;;;;;;;;;;;;1031869;28;3984;-58
2022/04/28 03:40:38;;;;;;;;;;;;;;;;;;1031062;28;3627;-59
2022/04/28 03:41:09;;;;;;;;;;;;;;;;;;1030722;28;4203;-58
2022/04/28 03:41:40;;;;;;;;;;;;;;;;;;1031389;28;3579;-59
2022/04/28 03:42:10;;;;;;;;;;;;;;;;;;1027297;28;3803;-59
2022/04/28 03:42:41;;;;;;;;;;;;;;;;;;1028943;28;3532;-58
2022/04/28 03:43:11;;;;;;;;;;;;;;;;;;1027903;28;3722;-58
2022/04/28 03:43:43;;;;;;;;;;;;;;;;;;1028354;28;3608;-59
2022/04/28 03:44:13;;;;;;;;;;;;;;;;;;1032513;28;3533;-58
2022/04/28 03:44:44;;;;;;;;;;;;;;;;;;1027439;28;3590;-58
2022/04/28 03:45:14;;;;;;;;;;;;;;;;;;1026851;28;3730;-59
2022/04/28 03:45:44;;;;;;;;;;;;;;;;;;1026134;28;6031;-58
2022/04/28 03:46:15;;;;;;;;;;;;;;;;;;1027790;28;4090;-59
2022/04/28 03:46:45;;;;;;;;;;;;;;;;;;1031640;28;3457;-59
2022/04/28 03:47:23;;;;;;;;;;;;;;;;;;1031506;28;3584;-59